This is the latest recevied weather packets stored in our database for station/object K1WJY. If no packets are shown the sender has not sent any weather packets the latest 10 day(s).
| Time | Temp. | Humidity | Pressure | Rain* | Wind** | Luminosity | Snow |
|---|---|---|---|---|---|---|---|
| 1777749703 | 8.33° C | 74% | 1015.8 hPa | 0 mm | - | 177 W/m² | - |
| 1777749399 | 7.78° C | 77% | 1016 hPa | 0 mm | - | 187 W/m² | - |
| 1777749097 | 7.78° C | 78% | 1016 hPa | 0 mm | - | 124 W/m² | - |
| 1777748794 | 8.33° C | 73% | 1016 hPa | 0 mm | - | 119 W/m² | - |
| 1777748492 | 7.78° C | 74% | 1016 hPa | 0 mm | - | 177 W/m² | - |
| 1777748186 | 7.78° C | 78% | 1016.1 hPa | 0 mm | - | 146 W/m² | - |
| 1777747884 | 7.78° C | 76% | 1015.9 hPa | 0 mm | - | 102 W/m² | - |
| 1777747580 | 7.78° C | 74% | 1016 hPa | 0 mm | - | 96 W/m² | - |
| 1777747275 | 7.78° C | 75% | 1016 hPa | 0 mm | - | 108 W/m² | - |
| 1777746972 | 7.78° C | 74% | 1016.1 hPa | 0 mm | - | 157 W/m² | - |
| 1777746668 | 7.78° C | 74% | 1015.8 hPa | 0 mm | - | 150 W/m² | - |
| 1777746363 | 8.89° C | 68% | 1016 hPa | 0 mm | - | 188 W/m² | - |
| 1777746059 | 8.89° C | 69% | 1016.1 hPa | 0 mm | - | 201 W/m² | - |
| 1777745757 | 8.89° C | 63% | 1015.9 hPa | 0 mm | - | 169 W/m² | - |
| 1777745456 | 8.89° C | 65% | 1015.5 hPa | 0 mm | - | 107 W/m² | - |
| 1777745152 | 8.89° C | 62% | 1015.8 hPa | 0 mm | - | 126 W/m² | - |
| 1777744844 | 8.89° C | 68% | 1015.9 hPa | 0 mm | - | 177 W/m² | - |
| 1777744543 | 8.89° C | 72% | 1015.7 hPa | 0 mm | - | 114 W/m² | - |
| 1777744239 | 8.89° C | 68% | 1015.7 hPa | 0 mm | - | 132 W/m² | - |
| 1777743937 | 8.89° C | 69% | 1016 hPa | 0 mm | - | 84 W/m² | - |
| 1777743633 | 9.44° C | 66% | 1015.8 hPa | 0 mm | - | 82 W/m² | - |
| 1777743331 | 10° C | 65% | 1015.5 hPa | 0 mm | - | 112 W/m² | - |
| 1777743029 | 10° C | 65% | 1015.9 hPa | 0 mm | - | 128 W/m² | - |
| 1777742726 | 10° C | 63% | 1016 hPa | 0 mm | - | 126 W/m² | - |
| 1777742422 | 10° C | 62% | 1016.1 hPa | 0 mm | - | 152 W/m² | - |
* Rain latest hour (hover to see other rain measurements)
** Current wind speed in m/s (hover to see current wind gust speed)